createdAt,value
2017-07-04T00:00:15.986Z,55.11
2017-07-04T00:01:26.329Z,55.3
2017-07-04T00:02:36.403Z,55.2
2017-07-04T00:03:46.753Z,55.11
2017-07-04T00:04:56.774Z,55.01
2017-07-04T00:06:07.112Z,55.11
2017-07-04T00:07:17.458Z,54.91
2017-07-04T00:08:27.813Z,54.91
2017-07-04T00:09:37.842Z,55.2
2017-07-04T00:10:48.201Z,55.2
2017-07-04T00:11:58.628Z,55.2
2017-07-04T00:13:08.993Z,55.2
2017-07-04T00:14:19.326Z,55.01
2017-07-04T00:15:29.369Z,55.2
2017-07-04T00:16:39.706Z,55.11
2017-07-04T00:17:49.733Z,55.11
2017-07-04T00:19:00.074Z,55.11
2017-07-04T00:20:10.474Z,55.11
2017-07-04T00:21:20.848Z,55.01
2017-07-04T00:22:30.867Z,55.11
2017-07-04T00:23:40.582Z,54.91
2017-07-04T00:24:50.934Z,55.01
2017-07-04T00:26:01.292Z,55.11
2017-07-04T00:27:11.652Z,55.3
2017-07-04T00:28:21.991Z,55.3
2017-07-04T00:29:32.350Z,55.11
2017-07-04T00:30:42.697Z,55.3
2017-07-04T00:31:53.059Z,55.2
2017-07-04T00:33:03.407Z,55.11
2017-07-04T00:34:13.747Z,55.3
2017-07-04T00:35:23.759Z,55.49
2017-07-04T00:36:34.112Z,55.2
2017-07-04T00:37:43.562Z,55.01
2017-07-04T00:38:53.581Z,55.11
2017-07-04T00:40:03.927Z,55.11
2017-07-04T00:41:14.263Z,55.3
2017-07-04T00:42:24.295Z,55.01
2017-07-04T00:43:34.631Z,55.2
2017-07-04T00:44:44.968Z,55.3
2017-07-04T00:45:55.020Z,55.3
2017-07-04T00:47:05.361Z,55.49
2017-07-04T00:48:15.729Z,55.3
2017-07-04T00:49:26.131Z,55.49
2017-07-04T00:50:36.155Z,55.49
2017-07-04T00:51:46.180Z,55.37
2017-07-04T00:52:56.523Z,55.37
2017-07-04T00:54:06.876Z,55.46
2017-07-04T00:55:17.209Z,55.27
2017-07-04T00:56:27.611Z,55.46
2017-07-04T00:57:37.953Z,55.46
2017-07-04T00:58:47.976Z,55.46
2017-07-04T00:59:57.693Z,55.46
2017-07-04T01:01:08.090Z,55.46
2017-07-04T01:02:18.446Z,55.46
2017-07-04T01:03:28.788Z,55.66
2017-07-04T01:04:39.133Z,55.66
2017-07-04T01:05:49.481Z,55.46
2017-07-04T01:06:59.549Z,55.66
2017-07-04T01:08:09.249Z,55.46
2017-07-04T01:09:19.285Z,55.46
2017-07-04T01:10:29.624Z,55.46
2017-07-04T01:11:39.670Z,55.37
2017-07-04T01:12:50.073Z,55.46
2017-07-04T01:14:00.419Z,55.66
2017-07-04T01:15:10.443Z,55.56
2017-07-04T01:16:20.471Z,55.46
2017-07-04T01:17:30.877Z,55.46
2017-07-04T01:18:40.267Z,55.66
2017-07-04T01:19:50.621Z,55.46
2017-07-04T01:21:00.658Z,55.46
2017-07-04T01:22:10.694Z,55.46
2017-07-04T01:23:20.719Z,55.46
2017-07-04T01:24:31.122Z,55.37
2017-07-04T01:25:41.469Z,55.37
2017-07-04T01:26:51.492Z,55.66
2017-07-04T01:28:01.525Z,55.27
2017-07-04T01:29:11.561Z,55.27
2017-07-04T01:30:21.904Z,55.56
2017-07-04T01:31:32.243Z,55.27
2017-07-04T01:32:42.658Z,55.66
2017-07-04T01:33:53.001Z,55.56
2017-07-04T01:35:03.346Z,55.46
2017-07-04T01:36:13.747Z,55.46
2017-07-04T01:37:24.102Z,55.56
2017-07-04T01:38:34.443Z,55.37
2017-07-04T01:39:44.793Z,55.37
2017-07-04T01:40:54.813Z,55.37
2017-07-04T01:42:05.158Z,55.66
2017-07-04T01:43:15.185Z,55.46
2017-07-04T01:44:25.673Z,55.37
2017-07-04T01:45:36.012Z,55.56
2017-07-04T01:46:46.348Z,55.37
2017-07-04T01:47:56.424Z,55.46
2017-07-04T01:49:06.770Z,55.46
2017-07-04T01:50:16.823Z,55.46
2017-07-04T01:51:26.859Z,55.46
2017-07-04T01:52:37.200Z,55.46
2017-07-04T01:53:47.556Z,55.46
2017-07-04T01:54:57.606Z,55.46
2017-07-04T01:56:07.952Z,55.37
2017-07-04T01:57:17.662Z,55.37
2017-07-04T01:58:28.014Z,55.46
2017-07-04T01:59:38.396Z,55.37
2017-07-04T02:00:48.748Z,55.56
2017-07-04T02:01:59.088Z,55.46
2017-07-04T02:03:09.123Z,55.27
2017-07-04T02:04:19.474Z,55.18
2017-07-04T02:05:29.815Z,55.44
2017-07-04T02:06:40.157Z,55.44
2017-07-04T02:07:50.190Z,55.37
2017-07-04T02:09:00.549Z,55.46
2017-07-04T02:10:10.897Z,55.46
2017-07-04T02:11:21.250Z,55.34
2017-07-04T02:12:31.266Z,55.44
2017-07-04T02:13:41.632Z,55.46
2017-07-04T02:14:51.989Z,55.27
2017-07-04T02:16:02.331Z,55.27
2017-07-04T02:17:12.723Z,55.37
2017-07-04T02:18:22.745Z,55.27
2017-07-04T02:19:32.779Z,55.27
2017-07-04T02:20:42.813Z,55.37
2017-07-04T02:21:53.156Z,55.37
2017-07-04T02:23:03.534Z,55.37
2017-07-04T02:24:13.875Z,55.46
2017-07-04T02:25:23.907Z,55.46
2017-07-04T02:26:34.247Z,55.46
2017-07-04T02:27:44.280Z,55.46
2017-07-04T02:28:54.004Z,55.27
2017-07-04T02:30:04.358Z,55.15
2017-07-04T02:31:14.724Z,55.24
2017-07-04T02:32:25.075Z,55.15
2017-07-04T02:33:35.428Z,55.27
2017-07-04T02:34:45.816Z,55.27
2017-07-04T02:35:55.846Z,55.27
2017-07-04T02:37:06.179Z,55.15
2017-07-04T02:38:15.577Z,55.27
2017-07-04T02:39:25.926Z,55.24
2017-07-04T02:40:35.950Z,55.15
2017-07-04T02:41:45.960Z,55.15
2017-07-04T02:42:55.994Z,55.44
2017-07-04T02:44:06.403Z,55.24
2017-07-04T02:45:16.433Z,55.15
2017-07-04T02:46:26.190Z,55.34
2017-07-04T02:47:36.208Z,55.15
2017-07-04T02:48:46.540Z,55.53
2017-07-04T02:49:56.887Z,55.44
2017-07-04T02:51:06.915Z,55.53
2017-07-04T02:52:17.297Z,55.44
2017-07-04T02:53:27.638Z,55.44
2017-07-04T02:54:37.969Z,55.34
2017-07-04T02:55:48.313Z,55.34
2017-07-04T02:56:58.338Z,55.24
2017-07-04T02:58:08.670Z,55.53
2017-07-04T02:59:19.016Z,55.34
2017-07-04T03:00:29.383Z,55.44
2017-07-04T03:01:39.714Z,55.44
2017-07-04T03:33:05.755Z,53.07
2017-07-04T03:34:15.778Z,53.07
2017-07-04T03:35:26.170Z,53.55
2017-07-04T03:36:35.881Z,54.32
2017-07-04T03:37:45.894Z,54.91
2017-07-04T03:38:56.476Z,55.11
2017-07-04T03:40:06.503Z,55.3
2017-07-04T03:41:16.573Z,55.4
2017-07-04T03:42:26.927Z,55.9
2017-07-04T03:43:37.280Z,55.42
2017-07-04T03:44:46.973Z,55.42
2017-07-04T03:45:57.333Z,56.12
2017-07-04T03:47:07.720Z,56.02
2017-07-04T03:48:17.747Z,55.45
2017-07-04T03:49:27.772Z,55.96
2017-07-04T03:50:38.121Z,55.67
2017-07-04T03:51:48.466Z,55.67
2017-07-04T03:52:58.814Z,55.69
2017-07-04T03:54:08.221Z,55.32
2017-07-04T03:55:18.557Z,55.63
2017-07-04T03:56:28.893Z,55.63
2017-07-04T03:57:39.231Z,55.44
2017-07-04T03:58:49.002Z,55.46
2017-07-04T03:59:59.348Z,55.08
2017-07-04T04:01:09.376Z,55.18
2017-07-04T04:02:19.404Z,55.01
2017-07-04T04:03:29.432Z,55.3
2017-07-04T04:04:39.831Z,55.01
2017-07-04T04:05:50.168Z,55.11
2017-07-04T04:07:00.512Z,55.04
2017-07-04T04:08:10.228Z,54.56
2017-07-04T04:09:20.262Z,54.85
2017-07-04T04:10:30.611Z,54.65
2017-07-04T04:11:40.950Z,54.94
2017-07-04T04:12:51.288Z,54.68
2017-07-04T04:14:01.322Z,54.68
2017-07-04T04:15:11.054Z,54.68
2017-07-04T04:16:21.460Z,54.97
2017-07-04T04:17:31.797Z,55.19
2017-07-04T04:18:42.159Z,54.8
2017-07-04T04:19:52.191Z,54.8
2017-07-04T04:21:02.535Z,55.29
2017-07-04T04:22:12.926Z,54.71
2017-07-04T04:23:22.959Z,53.77
2017-07-04T04:24:33.315Z,51.99
2017-07-04T04:25:43.027Z,49.54
2017-07-04T04:26:53.366Z,48.66
2017-07-04T04:28:03.778Z,47.78
2017-07-04T04:29:13.500Z,48.13
2017-07-04T04:30:23.860Z,48.39
2017-07-04T04:31:33.892Z,48.05
2017-07-04T04:32:43.917Z,48.39
2017-07-04T04:33:53.997Z,48.24
2017-07-04T04:35:04.336Z,48.36
2017-07-04T04:36:14.363Z,48.31
2017-07-04T04:37:24.718Z,48.33
2017-07-04T04:38:34.428Z,48.26
2017-07-04T04:39:44.783Z,48.28
2017-07-04T04:40:55.146Z,48.33
2017-07-04T04:42:05.502Z,48.45
2017-07-04T04:43:15.840Z,48.57
2017-07-04T04:44:26.191Z,48.6
2017-07-04T04:45:36.224Z,48.62
2017-07-04T04:46:46.260Z,48.55
2017-07-04T04:47:56.290Z,48.77
2017-07-04T04:49:06.632Z,48.47
2017-07-04T04:50:16.663Z,49.08
2017-07-04T04:51:27.007Z,49.18
2017-07-04T04:52:37.378Z,48.71
2017-07-04T04:53:47.417Z,48.74
2017-07-04T04:54:57.442Z,49.06
2017-07-04T04:56:07.794Z,48.96
2017-07-04T04:57:17.827Z,49.06
2017-07-04T04:58:28.179Z,48.49
2017-07-04T04:59:38.548Z,48.63
2017-07-04T05:00:48.571Z,47.97
2017-07-04T05:01:58.913Z,47.91
2017-07-04T05:03:08.684Z,47.54
2017-07-04T05:04:18.406Z,47.47
2017-07-04T05:05:28.443Z,47.47
2017-07-04T05:06:38.798Z,47.66
2017-07-04T05:07:48.821Z,48.65
2017-07-04T05:08:58.906Z,52.41
2017-07-04T05:10:08.634Z,54.37
2017-07-04T05:11:18.344Z,55.98
2017-07-04T05:12:28.377Z,56.56
2017-07-04T05:13:38.406Z,57.54
2017-07-04T05:14:48.751Z,57.1
2017-07-04T05:15:59.094Z,57.43
2017-07-04T05:17:09.445Z,57.5
2017-07-04T05:18:19.481Z,56.96
2017-07-04T05:19:29.520Z,57.03
2017-07-04T05:20:39.921Z,57.1
2017-07-04T05:21:50.277Z,56.97
2017-07-04T05:23:00.604Z,56.97
2017-07-04T05:24:10.955Z,56.46
2017-07-04T05:25:21.298Z,56.36
2017-07-04T05:26:31.689Z,55.94
2017-07-04T05:27:41.726Z,55.65
2017-07-04T05:28:52.074Z,55.36
2017-07-04T05:30:02.425Z,55.27
2017-07-04T05:31:12.787Z,54.88
2017-07-04T05:32:23.144Z,54.58
2017-07-04T05:33:33.494Z,53.06
2017-07-04T05:34:43.529Z,53.59
2017-07-04T05:35:53.635Z,54.05
2017-07-04T05:37:03.975Z,53.57
2017-07-04T05:38:14.328Z,53.93
2017-07-04T05:39:24.726Z,54.52
2017-07-04T05:40:34.758Z,53.83
2017-07-04T05:41:45.118Z,53.93
2017-07-04T05:42:54.825Z,53.54
2017-07-04T05:44:04.855Z,53.38
2017-07-04T05:45:15.211Z,53.86
2017-07-04T05:46:25.560Z,53.38
2017-07-04T05:47:35.303Z,52.98
2017-07-04T05:48:45.649Z,52.89
2017-07-04T05:49:56.018Z,53.01
2017-07-04T05:51:06.376Z,52.92
2017-07-04T05:52:16.773Z,52.82
2017-07-04T05:53:26.824Z,52.36
2017-07-04T05:54:36.866Z,51.97
2017-07-04T05:55:46.901Z,49.83
2017-07-04T05:56:56.947Z,48.73
2017-07-04T05:58:07.291Z,48.33
2017-07-04T05:59:17.319Z,47.6
2017-07-04T06:00:27.048Z,47.37
2017-07-04T06:01:37.404Z,46.46
2017-07-04T06:02:47.758Z,46.21
2017-07-04T06:03:57.856Z,46.43
2017-07-04T06:05:07.877Z,46.75
2017-07-04T06:06:17.274Z,47.56
2017-07-04T06:07:26.986Z,47.26
2017-07-04T06:08:37.019Z,47.28
2017-07-04T06:09:46.790Z,47.58
2017-07-04T06:10:57.157Z,47.9
2017-07-04T06:12:07.544Z,48
2017-07-04T06:13:17.909Z,48.88
2017-07-04T06:14:28.277Z,48.79
2017-07-04T06:15:38.304Z,48.98
2017-07-04T06:16:48.355Z,48.88
2017-07-04T06:17:58.401Z,49.3
2017-07-04T06:19:08.748Z,48.81
2017-07-04T06:20:19.100Z,49.2
2017-07-04T06:21:29.507Z,49.33
2017-07-04T06:22:39.857Z,48.93
2017-07-04T06:23:49.306Z,49.03
2017-07-04T06:24:59.660Z,49.62
2017-07-04T06:26:10.022Z,49.43
2017-07-04T06:27:20.386Z,49.52
2017-07-04T06:28:30.747Z,49.72
2017-07-04T06:29:41.104Z,49.72
2017-07-04T06:30:51.453Z,49.92
2017-07-04T06:32:01.827Z,50.31
2017-07-04T06:33:12.242Z,50.49
2017-07-04T06:34:22.287Z,49.72
2017-07-04T06:35:32.636Z,50.02
2017-07-04T06:36:42.987Z,49.62
2017-07-04T06:37:52.378Z,50.12
2017-07-04T06:39:02.784Z,50.51
2017-07-04T06:40:12.838Z,51.35
2017-07-04T06:41:23.200Z,51.28
2017-07-04T06:42:33.236Z,51.3
2017-07-04T06:43:43.276Z,51.3
2017-07-04T06:44:53.672Z,51.3
2017-07-04T06:46:03.713Z,51.3
2017-07-04T06:47:14.066Z,51.28
2017-07-04T06:48:23.792Z,51.47
2017-07-04T06:49:33.835Z,52.33
2017-07-04T06:50:43.878Z,52.31
2017-07-04T06:51:53.912Z,52.31
2017-07-04T06:53:03.634Z,52.48
2017-07-04T06:54:13.672Z,52.38
2017-07-04T06:55:23.710Z,52.48
2017-07-04T06:56:34.107Z,52.15
2017-07-04T06:57:44.151Z,52.15
2017-07-04T06:58:54.205Z,52.45
2017-07-04T07:00:04.240Z,52.35
2017-07-04T07:01:14.591Z,52.92
2017-07-04T07:02:24.999Z,52.52
2017-07-04T07:03:35.026Z,52.92
2017-07-04T07:04:45.384Z,52.89
2017-07-04T07:05:55.733Z,52.69
2017-07-04T07:07:06.085Z,52.86
2017-07-04T07:08:16.168Z,53.16
2017-07-04T07:09:25.859Z,53.43
2017-07-04T07:10:36.220Z,53.13
2017-07-04T07:11:46.575Z,53.3
2017-07-04T07:12:56.947Z,52.98
2017-07-04T07:14:06.988Z,53.18
2017-07-04T07:15:16.713Z,53.35
2017-07-04T07:16:26.130Z,52.93
2017-07-04T07:17:36.481Z,53.23
2017-07-04T07:18:46.831Z,53.23
2017-07-04T07:19:56.602Z,52.54
2017-07-04T07:21:06.952Z,52.93
2017-07-04T07:22:16.983Z,52.71
2017-07-04T07:23:27.348Z,53.49
2017-07-04T07:24:37.945Z,53.1
2017-07-04T07:25:47.989Z,53.08
2017-07-04T07:26:58.341Z,52.98
2017-07-04T07:28:08.681Z,53.2
2017-07-04T07:29:18.711Z,53.39
2017-07-04T07:30:28.756Z,53.39
2017-07-04T07:31:38.477Z,53.42
2017-07-04T07:32:48.531Z,53.23
2017-07-04T07:33:58.963Z,53
2017-07-04T07:35:09.310Z,53.39
2017-07-04T07:36:19.341Z,52.91
2017-07-04T07:37:29.738Z,53.1
2017-07-04T07:38:40.096Z,53.3
2017-07-04T07:39:50.135Z,53.3
2017-07-04T07:41:00.193Z,53.3
2017-07-04T07:42:10.552Z,53.49
2017-07-04T07:43:20.958Z,52.61
2017-07-04T07:44:30.687Z,52.91
2017-07-04T07:45:41.045Z,52.42
2017-07-04T07:46:51.081Z,52.73
2017-07-04T07:48:01.427Z,52.44
2017-07-04T07:49:11.836Z,52.44
2017-07-04T07:50:22.197Z,52.27
2017-07-04T07:51:32.549Z,52.67
2017-07-04T07:52:42.578Z,52.27
2017-07-04T07:53:52.627Z,51.9
2017-07-04T07:55:02.714Z,51.71
2017-07-04T07:56:12.756Z,51.34
2017-07-04T07:57:23.102Z,51.66
2017-07-04T07:58:33.455Z,51.27
2017-07-04T07:59:43.818Z,51.2
2017-07-04T08:00:54.191Z,51.03
2017-07-04T08:02:04.539Z,50.93
2017-07-04T08:03:14.887Z,50.56
2017-07-04T08:04:25.239Z,50.56
2017-07-04T08:05:35.274Z,50.78
2017-07-04T08:06:45.687Z,50.59
2017-07-04T08:07:55.723Z,50.78
2017-07-04T08:09:05.770Z,50.81
2017-07-04T08:10:15.496Z,50.9
2017-07-04T08:11:25.535Z,50.71
2017-07-04T08:12:35.949Z,50.61
2017-07-04T08:13:46.306Z,50.44
2017-07-04T08:14:56.341Z,50.46
2017-07-04T08:16:06.704Z,50.07
2017-07-04T08:17:17.052Z,50.39
2017-07-04T08:18:27.449Z,50.39
2017-07-04T08:19:37.810Z,50.31
2017-07-04T08:20:47.865Z,50.42
2017-07-04T08:21:57.903Z,50.51
2017-07-04T08:23:07.926Z,50.54
2017-07-04T08:24:17.658Z,50.12
2017-07-04T08:25:27.695Z,50.42
2017-07-04T08:26:38.038Z,50.63
2017-07-04T08:27:48.413Z,50.54
2017-07-04T08:28:58.829Z,50.14
2017-07-04T08:30:09.179Z,50.54
2017-07-04T08:31:19.560Z,50.54
2017-07-04T08:32:29.922Z,50.44
2017-07-04T08:33:40.279Z,50.24
2017-07-04T08:34:49.726Z,50.14
2017-07-04T08:36:00.100Z,50.24
2017-07-04T08:37:10.134Z,50.02
2017-07-04T08:38:20.474Z,50.31
2017-07-04T08:39:30.831Z,50.31
2017-07-04T08:40:40.928Z,50.81
2017-07-04T08:41:51.301Z,50.88
2017-07-04T08:43:01.013Z,50.98
2017-07-04T08:44:11.064Z,50.59
2017-07-04T08:45:21.409Z,50.68
2017-07-04T08:46:31.516Z,50.98
2017-07-04T08:47:41.557Z,50.85
2017-07-04T08:48:51.919Z,51.32
2017-07-04T08:50:01.978Z,51.62
2017-07-04T08:51:12.331Z,51.59
2017-07-04T08:52:22.370Z,51.2
2017-07-04T08:53:32.089Z,50.93
2017-07-04T08:54:42.139Z,50.54
2017-07-04T08:55:52.509Z,50.63
2017-07-04T08:57:02.922Z,50.54
2017-07-04T08:58:13.292Z,50.93
2017-07-04T08:59:23.645Z,51.3
2017-07-04T09:00:33.692Z,51.27
2017-07-04T09:01:44.060Z,51.57
2017-07-04T09:02:54.432Z,51.37
2017-07-04T09:04:04.520Z,51.45
2017-07-04T09:05:14.880Z,51.17
2017-07-04T09:06:25.242Z,51.1
2017-07-04T09:07:35.631Z,51.32
2017-07-04T09:08:45.990Z,51.32
2017-07-04T09:09:56.404Z,51.2
2017-07-04T09:11:06.449Z,51.1
2017-07-04T09:12:16.160Z,51.2
2017-07-04T09:13:26.512Z,51.3
2017-07-04T09:14:36.865Z,51.3
2017-07-04T09:15:47.285Z,51.4
2017-07-04T09:16:57.629Z,51.79
2017-07-04T09:18:07.996Z,51.96
2017-07-04T09:19:18.027Z,51.86
2017-07-04T09:20:28.055Z,51.86
2017-07-04T09:21:38.475Z,51.67
2017-07-04T09:22:48.821Z,51.86
2017-07-04T09:23:58.867Z,51.57
2017-07-04T09:25:08.579Z,51.59
2017-07-04T09:26:18.618Z,51.89
2017-07-04T09:27:28.712Z,52.52
2017-07-04T09:28:38.441Z,52.47
2017-07-04T09:29:48.810Z,52.96
2017-07-04T09:30:59.173Z,52.84
2017-07-04T09:32:09.531Z,52.84
2017-07-04T09:33:19.588Z,52.72
2017-07-04T09:34:29.941Z,52.72
2017-07-04T09:35:39.993Z,52.72
2017-07-04T09:36:50.350Z,52.59
2017-07-04T09:38:00.427Z,53.18
2017-07-04T09:39:10.514Z,53.35
2017-07-04T09:40:20.861Z,53.45
2017-07-04T09:41:30.573Z,53.52
2017-07-04T09:42:40.604Z,53.45
2017-07-04T09:43:50.951Z,53.33
2017-07-04T09:45:01.324Z,53.52
2017-07-04T09:46:11.349Z,53.62
2017-07-04T09:47:21.376Z,53.42
2017-07-04T09:48:31.109Z,53.03
2017-07-04T09:49:41.159Z,52.64
2017-07-04T09:50:51.571Z,53.13
2017-07-04T09:52:01.630Z,52.64
2017-07-04T09:53:11.984Z,52.64
2017-07-04T09:54:22.337Z,53.03
2017-07-04T09:55:32.717Z,52.44
2017-07-04T09:56:43.128Z,52.64
2017-07-04T09:57:53.481Z,52.34
2017-07-04T09:59:03.515Z,52.34
2017-07-04T10:00:13.548Z,52.34
2017-07-04T10:01:23.907Z,52.64
2017-07-04T10:02:34.314Z,52.73
2017-07-04T10:03:44.680Z,52.54
2017-07-04T10:04:55.073Z,52.73
2017-07-04T10:06:05.110Z,52.73
2017-07-04T10:07:15.482Z,52.47
2017-07-04T10:08:25.879Z,52.37
2017-07-04T10:09:35.906Z,52
2017-07-04T10:10:46.256Z,52
2017-07-04T10:11:56.619Z,52.23
2017-07-04T10:13:06.978Z,52.33
2017-07-04T10:14:17.082Z,51.76
2017-07-04T10:15:27.123Z,51.96
2017-07-04T10:16:37.157Z,51.66
2017-07-04T10:17:47.524Z,51.69
2017-07-04T10:18:57.865Z,51.79
2017-07-04T10:20:08.276Z,52.08
2017-07-04T10:21:18.641Z,52.28
2017-07-04T10:22:28.678Z,52.28
2017-07-04T10:23:38.122Z,52.18
2017-07-04T10:24:48.481Z,52.86
2017-07-04T10:25:58.912Z,52.18
2017-07-04T10:27:08.957Z,52.08
2017-07-04T10:28:19.305Z,51.98
2017-07-04T10:29:29.353Z,52.28
2017-07-04T10:30:39.716Z,52.47
2017-07-04T10:31:50.114Z,52.35
2017-07-04T10:33:00.156Z,52.37
2017-07-04T10:34:10.514Z,52.08
2017-07-04T10:35:20.878Z,52.47
2017-07-04T10:36:31.235Z,51.59
2017-07-04T10:37:41.382Z,51.15
2017-07-04T10:38:51.746Z,51.2
2017-07-04T10:40:02.121Z,51.3
2017-07-04T10:41:12.163Z,51.3
2017-07-04T10:42:22.534Z,51.5
2017-07-04T10:43:32.952Z,51.37
2017-07-04T10:44:43.319Z,51.2
2017-07-04T10:45:53.679Z,51.89
2017-07-04T10:47:04.023Z,52.55
2017-07-04T10:48:14.395Z,52.2
2017-07-04T10:49:23.846Z,52.47
2017-07-04T10:50:34.208Z,53.03
2017-07-04T10:51:44.549Z,53.59
2017-07-04T10:52:54.920Z,52.52
2017-07-04T10:54:05.260Z,51.86
2017-07-04T10:55:15.628Z,51.62
2017-07-04T10:56:25.348Z,51.52
2017-07-04T10:57:35.686Z,51.42
2017-07-04T10:58:46.066Z,51.22
2017-07-04T10:59:56.441Z,51.45
2017-07-04T11:01:06.215Z,51.25
2017-07-04T11:02:16.582Z,51.07
2017-07-04T11:03:26.948Z,50.49
2017-07-04T11:04:37.309Z,50.34
2017-07-04T11:05:47.667Z,49.95
2017-07-04T11:06:58.069Z,50.07
2017-07-04T11:08:08.106Z,50.56
2017-07-04T11:09:18.466Z,50.49
2017-07-04T11:10:28.821Z,50.51
2017-07-04T11:11:38.848Z,51.1
2017-07-04T11:12:49.243Z,51.25
2017-07-04T11:13:59.611Z,51.72
2017-07-04T11:15:09.981Z,51.79
2017-07-04T11:16:19.383Z,52.35
2017-07-04T11:17:29.730Z,52.33
2017-07-04T11:18:40.103Z,52.59
2017-07-04T11:19:50.147Z,52.99
2017-07-04T11:21:00.509Z,52.67
2017-07-04T11:22:10.868Z,52.55
2017-07-04T11:23:21.227Z,52.45
2017-07-04T11:24:31.612Z,52.94
2017-07-04T11:25:41.966Z,52.94
2017-07-04T11:26:52.024Z,52.94
2017-07-04T11:28:02.367Z,52.35
2017-07-04T11:29:12.421Z,52.35
2017-07-04T11:30:22.498Z,52.25
2017-07-04T11:31:32.841Z,52.35
2017-07-04T11:32:42.896Z,52.45
2017-07-04T11:33:52.929Z,52.15
2017-07-04T11:35:03.272Z,51.66
2017-07-04T11:36:13.663Z,52.08
2017-07-04T11:37:23.718Z,52.18
2017-07-04T11:38:34.100Z,51.62
2017-07-04T11:39:44.129Z,51.62
2017-07-04T11:40:54.496Z,51.64
2017-07-04T11:42:04.680Z,51.25
2017-07-04T11:43:14.724Z,51.37
2017-07-04T11:44:24.430Z,51.07
2017-07-04T11:45:34.463Z,50.9
2017-07-04T11:46:44.178Z,50.34
2017-07-04T11:47:54.571Z,50.26
2017-07-04T11:49:04.627Z,50.19
2017-07-04T11:50:14.982Z,49.73
2017-07-04T11:51:25.315Z,50.63
2017-07-04T11:52:35.037Z,50.34
2017-07-04T11:53:44.808Z,50.34
2017-07-04T11:54:55.219Z,50.44
2017-07-04T11:56:05.575Z,50.54
2017-07-04T11:57:15.615Z,50.34
2017-07-04T11:58:25.347Z,50.93
2017-07-04T11:59:35.378Z,50.73
2017-07-04T12:00:45.419Z,51.3
2017-07-04T12:01:55.806Z,51.69
2017-07-04T12:03:06.155Z,51.37
2017-07-04T12:04:16.521Z,51.93
2017-07-04T12:05:26.929Z,51.54
2017-07-04T12:06:37.289Z,51.93
2017-07-04T12:07:47.657Z,52.4
2017-07-04T12:08:58.086Z,52.38
2017-07-04T12:10:08.455Z,52.58
2017-07-04T12:11:18.870Z,52.48
2017-07-04T12:12:29.242Z,51.81
2017-07-04T12:13:39.644Z,51.32
2017-07-04T12:14:50.001Z,50.78
2017-07-04T12:16:00.383Z,50.51
2017-07-04T12:17:10.105Z,50.34
2017-07-04T12:18:20.471Z,50.04
2017-07-04T12:19:30.825Z,50.76
2017-07-04T12:20:40.859Z,50.44
2017-07-04T12:21:51.221Z,50.46
2017-07-04T12:23:01.318Z,49.5
2017-07-04T12:24:11.356Z,49.55
2017-07-04T12:25:21.407Z,50.34
2017-07-04T12:26:31.765Z,50.21
2017-07-04T12:27:41.805Z,50.78
2017-07-04T12:28:51.892Z,50.46
2017-07-04T12:30:01.942Z,49.72
2017-07-04T12:31:12.307Z,49.43
2017-07-04T12:32:22.341Z,49.25
2017-07-04T12:33:32.699Z,49.35
2017-07-04T12:34:43.006Z,49.65
2017-07-04T12:35:53.087Z,50.41
2017-07-04T12:37:03.134Z,50.78
2017-07-04T12:38:13.235Z,51.45
2017-07-04T12:39:23.588Z,51.59
2017-07-04T12:40:33.654Z,52.55
2017-07-04T12:41:44.057Z,52.33
2017-07-04T12:42:54.420Z,52.5
2017-07-04T12:44:04.797Z,52.4
2017-07-04T12:45:15.177Z,52.01
2017-07-04T12:46:24.903Z,52.58
2017-07-04T12:47:35.026Z,52.08
2017-07-04T12:48:45.389Z,52.38
2017-07-04T12:49:55.746Z,52.18
2017-07-04T12:51:06.097Z,52.38
2017-07-04T12:52:16.147Z,52.58
2017-07-04T12:53:26.189Z,52.48
2017-07-04T12:54:36.543Z,52.48
2017-07-04T12:55:46.900Z,52.08
2017-07-04T12:56:57.250Z,51.96
2017-07-04T12:58:07.597Z,52.23
2017-07-04T12:59:18.016Z,52.72
2017-07-04T13:00:28.075Z,52.59
2017-07-04T13:01:38.441Z,52.47
2017-07-04T13:02:48.805Z,52.76
2017-07-04T13:03:58.536Z,52.64
2017-07-04T13:05:08.563Z,53.03
2017-07-04T13:06:18.920Z,52.62
2017-07-04T13:07:28.973Z,53.47
2017-07-04T13:08:39.318Z,53.47
2017-07-04T13:09:49.370Z,53.45
2017-07-04T13:10:59.773Z,52.93
2017-07-04T13:12:10.137Z,53.03
2017-07-04T13:13:20.536Z,53.39
2017-07-04T13:14:30.892Z,53.47
2017-07-04T13:15:41.275Z,53.56
2017-07-04T13:16:51.681Z,53.37
2017-07-04T13:18:01.749Z,53.34
2017-07-04T13:19:11.800Z,53.34
2017-07-04T13:20:21.845Z,53.32
2017-07-04T13:21:32.231Z,53.22
2017-07-04T13:22:42.651Z,53.32
2017-07-04T13:23:52.713Z,53.52
2017-07-04T13:25:03.073Z,53.32
2017-07-04T13:26:13.421Z,53.32
2017-07-04T13:27:23.471Z,53.13
2017-07-04T13:28:33.868Z,53.09
2017-07-04T13:29:43.888Z,53
2017-07-04T13:30:54.231Z,53.09
2017-07-04T13:32:04.578Z,53.19
2017-07-04T13:33:14.930Z,53.36
2017-07-04T13:34:25.331Z,53.39
2017-07-04T13:35:35.685Z,53.36
2017-07-04T13:36:45.412Z,53.36
2017-07-04T13:37:55.465Z,53.17
2017-07-04T13:39:05.821Z,53.27
2017-07-04T13:40:16.275Z,53.46
2017-07-04T13:41:26.617Z,53.07
2017-07-04T13:42:36.664Z,52.78
2017-07-04T13:43:47.041Z,52.9
2017-07-04T13:44:57.396Z,52.7
2017-07-04T13:46:07.434Z,53
2017-07-04T13:47:17.797Z,53.29
2017-07-04T13:48:28.149Z,53.19
2017-07-04T13:49:38.510Z,52.54
2017-07-04T13:50:48.876Z,52.54
2017-07-04T13:51:59.287Z,52.17
2017-07-04T13:53:09.319Z,52.08
2017-07-04T13:54:19.677Z,52.1
2017-07-04T13:55:29.721Z,52.12
2017-07-04T13:56:39.786Z,51.76
2017-07-04T13:57:50.194Z,51.1
2017-07-04T13:59:00.542Z,51.59
2017-07-04T14:00:10.266Z,51.22
2017-07-04T14:01:20.297Z,51.32
2017-07-04T14:02:30.020Z,51.44
2017-07-04T14:03:40.423Z,51.27
2017-07-04T14:04:50.782Z,51.46
2017-07-04T14:06:01.148Z,52.23
2017-07-04T14:07:11.502Z,52.33
2017-07-04T14:08:21.879Z,52.52
2017-07-04T14:09:32.294Z,52.3
2017-07-04T14:10:42.332Z,52.3
2017-07-04T14:11:52.359Z,52.4
2017-07-04T14:13:02.701Z,52.89
2017-07-04T14:14:12.417Z,52.67
2017-07-04T14:15:22.778Z,52.47
2017-07-04T14:16:32.820Z,53.16
2017-07-04T14:17:43.202Z,53.13
2017-07-04T14:18:53.555Z,53.42
2017-07-04T14:20:03.912Z,53.33
2017-07-04T14:21:14.270Z,53.3
2017-07-04T14:22:24.328Z,52.81
2017-07-04T14:23:34.695Z,53.2
2017-07-04T14:24:44.732Z,53.08
2017-07-04T14:25:54.769Z,53
2017-07-04T14:27:05.129Z,53.17
2017-07-04T14:28:15.153Z,52.98
2017-07-04T14:29:25.187Z,53.37
2017-07-04T14:30:35.223Z,53.27
2017-07-04T14:31:45.593Z,53.17
2017-07-04T14:32:55.686Z,53.05
2017-07-04T14:34:06.090Z,53.44
2017-07-04T14:35:15.809Z,53.54
2017-07-04T14:36:26.166Z,53.54
2017-07-04T14:37:36.527Z,53.32
2017-07-04T14:38:46.575Z,53.32
2017-07-04T14:39:56.611Z,53.42
2017-07-04T14:41:06.633Z,53.03
2017-07-04T14:42:16.389Z,53.32
2017-07-04T14:43:26.746Z,53.09
2017-07-04T14:44:37.106Z,53.19
2017-07-04T14:45:47.506Z,52.9
2017-07-04T14:46:57.881Z,53.22
2017-07-04T14:48:07.918Z,53.13
2017-07-04T14:49:18.290Z,53.03
2017-07-04T14:50:28.081Z,53.13
2017-07-04T14:51:38.126Z,53.13
2017-07-04T14:52:47.862Z,53.29
2017-07-04T14:53:58.223Z,53.22
2017-07-04T14:55:08.583Z,53.22
2017-07-04T14:56:18.940Z,52.95
2017-07-04T14:57:28.992Z,52.64
2017-07-04T14:58:39.047Z,52.56
2017-07-04T14:59:49.399Z,52.29
2017-07-04T15:00:59.129Z,52.39
2017-07-04T15:02:09.546Z,52.22
2017-07-04T15:03:19.582Z,52.22
2017-07-04T15:04:29.927Z,52.12
2017-07-04T15:05:39.986Z,52.25
2017-07-04T15:06:50.358Z,52.54
2017-07-04T15:08:00.771Z,51.66
2017-07-04T15:09:11.139Z,51.78
2017-07-04T15:10:21.188Z,52.08
2017-07-04T15:11:31.558Z,52.08
2017-07-04T15:12:41.929Z,52.17
2017-07-04T15:13:51.978Z,52.1
2017-07-04T15:15:02.017Z,52.2
2017-07-04T15:16:12.062Z,52
2017-07-04T15:17:22.102Z,52.4
2017-07-04T15:18:32.467Z,51.9
2017-07-04T15:19:42.592Z,51.61
2017-07-04T15:20:52.978Z,52.33
2017-07-04T15:22:03.358Z,51.93
2017-07-04T15:23:13.729Z,51.66
2017-07-04T15:24:24.083Z,51.56
2017-07-04T15:25:34.498Z,51.76
2017-07-04T15:26:44.543Z,51.96
2017-07-04T15:27:54.979Z,52.15
2017-07-04T15:29:05.335Z,52.06
2017-07-04T15:30:15.686Z,52.91
2017-07-04T15:31:25.840Z,52.33
2017-07-04T15:32:36.204Z,52.72
2017-07-04T15:33:46.568Z,52.79
2017-07-04T15:34:56.643Z,52.79
2017-07-04T15:36:07.042Z,53.08
2017-07-04T15:37:17.447Z,53.45
2017-07-04T15:38:27.166Z,53.45